Погода Теколотланна 2 недели

Халиско, Мексика

01 - 14 марта
  • 01марта
    Сегодня
    +12°
    +31°
    Практически безоблачно
    ВремяПогодаТемператураВлажностьДавлениеВетер, м/сВероятность осадков
    00:00Облачно с прояснениями+16°C46 %665 мм1.4 м/с2 %
    03:00Облачно с прояснениями+14°C60 %663 мм1.0 м/с2 %
    06:00Облачно с прояснениями+14°C51 %663 мм0.5 м/с2 %
    09:00Облачно с прояснениями+17°C39 %666 мм0.7 м/с2 %
    12:00Ясно и безоблачно+26°C33 %667 мм2.1 м/с2 %
    15:00Практически безоблачно+31°C22 %666 мм3.7 м/с2 %
    18:00Облачно с прояснениями+27°C34 %665 мм3.4 м/с2 %
    21:00Небольшая облачность+20°C65 %665 мм1.1 м/с2 %
  • 02марта
    Суббота
    +12°
    +32°
    Небольшая облачность
    ВремяПогодаТемператураВлажностьДавлениеВетер, м/сВероятность осадков
    00:00Небольшая облачность+17°C71 %665 мм0.5 м/с2 %
    03:00Практически безоблачно+14°C83 %663 мм0.6 м/с2 %
    06:00Небольшая облачность+13°C88 %662 мм0.6 м/с2 %
    09:00Небольшая облачность+17°C67 %665 мм0.5 м/с2 %
    12:00Практически безоблачно+27°C27 %667 мм2.1 м/с2 %
    15:00Небольшая облачность+31°C20 %665 мм3.2 м/с2 %
    18:00Облачно с прояснениями+27°C31 %664 мм3.9 м/с2 %
    21:00Ясно и безоблачно+19°C64 %665 мм1.3 м/с2 %
  • 03марта
    Воскресенье
    +12°
    +31°
    Ясно и безоблачно
    ВремяПогодаТемператураВлажностьДавлениеВетер, м/сВероятность осадков
    00:00Ясно и безоблачно+17°C74 %665 мм0.4 м/с2 %
    03:00Ясно и безоблачно+15°C77 %664 мм0.5 м/с2 %
    06:00Ясно и безоблачно+13°C81 %662 мм0.9 м/с2 %
    09:00Ясно и безоблачно+16°C60 %665 мм0.6 м/с2 %
    12:00Ясно и безоблачно+26°C21 %666 мм2.1 м/с2 %
    15:00Ясно и безоблачно+31°C15 %664 мм3.3 м/с2 %
    18:00Ясно и безоблачно+27°C17 %663 мм3.7 м/с2 %
    21:00Ясно и безоблачно+19°C49 %664 мм1.0 м/с2 %
  • 04марта
    Понедельник
    +10°
    +31°
    Небольшая облачность
    ВремяПогодаТемператураВлажностьДавлениеВетер, м/сВероятность осадков
    00:00Ясно и безоблачно+16°C59 %664 мм0.6 м/с2 %
    03:00Ясно и безоблачно+15°C65 %663 мм0.4 м/с2 %
    06:00Ясно и безоблачно+13°C68 %661 мм0.4 м/с2 %
    09:00Ясно и безоблачно+17°C47 %664 мм0.5 м/с2 %
    12:00Практически безоблачно+27°C18 %665 мм2.0 м/с2 %
    15:00Небольшая облачность+31°C14 %664 мм3.3 м/с2 %
    18:00Ясно и безоблачно+27°C20 %663 мм3.4 м/с2 %
    21:00Ясно и безоблачно+19°C44 %663 мм0.8 м/с2 %
  • 05марта
    Вторник
    +11°
    +32°
    Небольшая облачность
    ВремяПогодаТемператураВлажностьДавлениеВетер, м/сВероятность осадков
    00:00Ясно и безоблачно+15°C51 %662 мм0.7 м/с2 %
    03:00Ясно и безоблачно+12°C56 %660 мм1.3 м/с2 %
    06:00Ясно и безоблачно+11°C54 %660 мм1.1 м/с2 %
    09:00Ясно и безоблачно+17°C32 %663 мм0.1 м/с2 %
    12:00Практически безоблачно+27°C15 %664 мм1.5 м/с2 %
    15:00Небольшая облачность+32°C12 %663 мм2.9 м/с2 %
    18:00Облачно с прояснениями+28°C24 %662 мм3.4 м/с2 %
    21:00Облачно с прояснениями+20°C52 %662 мм1.0 м/с2 %
Мы используем cookies
Соглашаюсь